Time;durP1;ratioP1;P1;durP2;ratioP2;P2;SDS_P1;SDS_P2;PMS_P1;PMS_P2;Temp;Humidity;BMP_temperature;BMP_pressure;BME280_temperature;BME280_humidity;BME280_pressure;Samples;Min_cycle;Max_cycle;Signal;HPM_P1;HPM_P2
2023/07/18 00:01:10;;;;;;;8.90;3.90;;;;;;;26.50;72.44;100782.91;5076483;28;20495;-66
2023/07/18 00:03:36;;;;;;;10.02;4.40;;;;;;;26.62;71.85;100772.97;5077142;28;20028;-66
2023/07/18 01:33:34;;;;;;;10.40;5.13;;;;;;;24.97;83.21;100760.41;5062765;28;20051;-66
2023/07/18 01:36:00;;;;;;;9.52;5.30;;;;;;;24.95;83.62;100758.97;5076858;28;20033;-66
2023/07/18 01:38:29;;;;;;;10.40;5.63;;;;;;;24.87;84.35;100761.97;5070471;28;20058;-66
2023/07/18 01:41:00;;;;;;;10.10;5.07;;;;;;;24.83;85.47;100763.47;5082761;28;20444;-66
2023/07/18 01:43:26;;;;;;;7.40;5.05;;;;;;;24.78;85.72;100764.19;5075948;28;20035;-66
2023/07/18 01:45:52;;;;;;;9.80;5.40;;;;;;;24.78;86.01;100761.50;5076072;28;20040;-66
2023/07/18 01:48:19;;;;;;;12.50;5.80;;;;;;;24.75;86.57;100761.97;5065184;28;20036;-66
2023/07/18 01:50:44;;;;;;;8.07;5.00;;;;;;;24.62;87.55;100765.66;5088344;28;20454;-67
2023/07/18 01:53:13;;;;;;;10.30;4.78;;;;;;;24.48;88.47;100766.94;5088158;28;20113;-66
2023/07/18 01:55:39;;;;;;;11.90;5.05;;;;;;;24.43;89.19;100764.13;5082323;28;20028;-67
2023/07/18 01:58:05;;;;;;;9.02;5.50;;;;;;;24.42;89.62;100767.84;5081164;28;20387;-67
2023/07/18 02:00:31;;;;;;;9.13;5.35;;;;;;;24.39;89.78;100762.97;5084082;28;20028;-66
2023/07/18 02:02:57;;;;;;;8.38;5.75;;;;;;;24.38;89.96;100774.66;5082203;28;20034;-65
2023/07/18 02:05:28;;;;;;;12.10;5.80;;;;;;;24.37;89.67;100770.38;5087085;28;20025;-65
2023/07/18 02:07:54;;;;;;;17.15;6.28;;;;;;;24.30;90.41;100775.78;5083028;28;20036;-66
2023/07/18 02:10:20;;;;;;;11.45;5.78;;;;;;;24.26;90.93;100773.81;5085278;28;20061;-66
2023/07/18 02:12:50;;;;;;;13.65;6.72;;;;;;;24.23;91.59;100774.22;5088436;28;20039;-66
2023/07/18 02:15:16;;;;;;;9.57;5.82;;;;;;;24.23;91.61;100774.22;5084988;28;20037;-67
2023/07/18 02:17:42;;;;;;;10.50;6.10;;;;;;;24.19;92.04;100767.72;5086074;28;20502;-66
2023/07/18 02:20:11;;;;;;;12.50;5.32;;;;;;;24.17;92.33;100766.09;5090012;28;20036;-67
2023/07/18 02:22:39;;;;;;;9.18;5.85;;;;;;;24.16;92.58;100769.00;5087272;28;20021;-67
2023/07/18 02:25:05;;;;;;;8.82;5.70;;;;;;;24.12;93.41;100768.63;5087634;28;20074;-66
2023/07/18 02:27:32;;;;;;;13.77;5.88;;;;;;;24.10;93.55;100765.38;5080150;28;20050;-66
2023/07/18 02:30:00;;;;;;;11.63;6.82;;;;;;;24.01;94.50;100765.94;5085699;28;20434;-66
2023/07/18 02:32:28;;;;;;;11.98;7.35;;;;;;;23.97;95.30;100773.56;5088614;28;20078;-67
2023/07/18 02:34:53;;;;;;;14.85;6.85;;;;;;;23.94;95.00;100771.34;5081713;28;20387;-67
2023/07/18 02:37:19;;;;;;;16.00;6.65;;;;;;;23.91;95.23;100771.78;5080270;28;20028;-66
2023/07/18 02:39:44;;;;;;;9.57;6.47;;;;;;;23.89;95.80;100776.53;5089454;28;20039;-66
2023/07/18 02:42:11;;;;;;;14.52;7.28;;;;;;;23.90;95.77;100775.50;5085810;28;20028;-67
2023/07/18 02:44:37;;;;;;;9.50;6.25;;;;;;;23.89;95.92;100775.72;5087446;28;20046;-67
2023/07/18 02:47:02;;;;;;;14.18;6.60;;;;;;;23.86;96.43;100784.97;5078364;28;20037;-66
2023/07/18 02:49:28;;;;;;;15.93;6.60;;;;;;;23.90;95.60;100775.50;5090457;28;20034;-66
2023/07/18 02:51:54;;;;;;;10.20;6.55;;;;;;;24.02;94.95;100779.03;5084988;28;20031;-66
2023/07/18 02:54:19;;;;;;;9.85;6.22;;;;;;;24.07;94.68;100781.81;5092263;28;20039;-66
2023/07/18 02:56:45;;;;;;;10.27;5.53;;;;;;;24.07;94.53;100781.81;5088118;28;20096;-66
2023/07/18 02:59:10;;;;;;;9.65;5.93;;;;;;;24.05;94.89;100788.41;5085514;28;20032;-66
2023/07/18 03:01:36;;;;;;;11.75;5.45;;;;;;;24.05;95.07;100791.88;5089147;28;20036;-66
2023/07/18 03:04:01;;;;;;;11.25;6.22;;;;;;;24.05;95.31;100789.22;5100290;28;20031;-66
2023/07/18 03:06:27;;;;;;;10.45;5.80;;;;;;;24.03;95.59;100796.63;5100178;28;20426;-66
2023/07/18 03:08:53;;;;;;;12.20;6.38;;;;;;;23.95;95.91;100794.25;5064796;28;20037;-66
2023/07/18 03:11:19;;;;;;;16.38;6.10;;;;;;;23.96;95.98;100793.22;5077649;28;20025;-66
2023/07/18 03:13:44;;;;;;;10.55;5.57;;;;;;;23.96;96.03;100795.06;5089842;28;20490;-66
2023/07/18 03:16:10;;;;;;;11.25;5.68;;;;;;;23.98;95.93;100796.47;5087746;28;20029;-66
2023/07/18 03:18:36;;;;;;;10.05;5.90;;;;;;;23.96;95.75;100792.41;5085998;28;20040;-66
2023/07/18 03:21:01;;;;;;;9.20;5.85;;;;;;;23.92;95.83;100802.69;5089292;28;20035;-66
2023/07/18 03:23:27;;;;;;;9.23;5.18;;;;;;;23.95;95.79;100791.59;5088556;28;20032;-66
2023/07/18 03:25:52;;;;;;;10.95;5.93;;;;;;;24.02;95.05;100795.00;5085990;28;20460;-66
2023/07/18 03:28:18;;;;;;;8.77;6.20;;;;;;;24.06;94.76;100798.03;5086008;28;20032;-66
2023/07/18 03:30:43;;;;;;;7.90;5.40;;;;;;;24.01;95.12;100795.22;5088321;28;20133;-66
2023/07/18 03:33:09;;;;;;;8.32;5.60;;;;;;;23.96;95.21;100806.53;5070274;28;20037;-66
2023/07/18 03:35:35;;;;;;;10.80;5.22;;;;;;;23.99;95.63;100800.75;5054421;28;20472;-66
2023/07/18 03:38:01;;;;;;;10.95;5.68;;;;;;;24.01;96.10;100804.00;5068734;28;20033;-66
2023/07/18 03:40:26;;;;;;;7.00;5.60;;;;;;;23.97;96.93;100797.50;5072047;28;20472;-66
2023/07/18 03:42:51;;;;;;;9.57;5.90;;;;;;;23.91;97.45;100806.38;5058764;28;20031;-66
2023/07/18 03:45:17;;;;;;;10.23;5.15;;;;;;;23.86;97.95;100808.09;5065902;28;20036;-67
2023/07/18 03:47:43;;;;;;;9.50;5.43;;;;;;;23.81;98.02;100811.41;5065448;28;20035;-66
2023/07/18 03:50:11;;;;;;;10.90;6.07;;;;;;;23.79;98.60;100808.97;5071993;28;20032;-66
2023/07/18 03:52:37;;;;;;;7.13;5.65;;;;;;;23.77;98.80;100810.25;5072914;28;20040;-67
2023/07/18 03:55:04;;;;;;;7.70;5.05;;;;;;;23.73;99.17;100809.06;5069004;28;20551;-66
2023/07/18 03:57:33;;;;;;;8.45;5.47;;;;;;;23.72;99.72;100810.09;5069807;28;20039;-66
2023/07/18 03:59:58;;;;;;;8.10;5.03;;;;;;;23.67;100.00;100808.09;5069301;28;20039;-66
2023/07/18 04:02:24;;;;;;;7.78;5.43;;;;;;;23.66;100.00;100810.97;5064862;28;20025;-65
2023/07/18 04:04:50;;;;;;;9.38;5.85;;;;;;;23.70;100.00;100812.16;5063449;28;20032;-65
2023/07/18 04:07:15;;;;;;;7.40;4.80;;;;;;;23.74;100.00;100816.81;5061672;28;20393;-65
2023/07/18 04:09:41;;;;;;;9.30;5.65;;;;;;;23.78;100.00;100819.84;5072668;28;20039;-65
2023/07/18 04:12:07;;;;;;;10.07;6.10;;;;;;;23.81;100.00;100825.53;5060169;28;20359;-65
2023/07/18 04:14:35;;;;;;;6.25;5.30;;;;;;;23.83;100.00;100827.97;5040899;28;20086;-65
2023/07/18 04:17:01;;;;;;;7.88;5.22;;;;;;;23.88;100.00;100827.31;5070229;28;20028;-65
2023/07/18 04:19:26;;;;;;;8.23;5.88;;;;;;;23.96;100.00;100827.81;5071432;28;20028;-65
2023/07/18 04:21:51;;;;;;;9.65;6.05;;;;;;;24.05;99.76;100831.81;5074255;28;20194;-65
2023/07/18 04:24:17;;;;;;;8.10;5.72;;;;;;;24.13;99.78;100830.66;5074116;28;20039;-65
2023/07/18 04:26:42;;;;;;;8.25;5.80;;;;;;;24.20;99.89;100826.06;5067754;28;20036;-65
2023/07/18 04:29:08;;;;;;;10.23;5.97;;;;;;;24.27;99.30;100820.69;5066095;28;20484;-66
2023/07/18 04:31:33;;;;;;;7.22;5.00;;;;;;;24.27;98.68;100818.03;5068448;28;20040;-65
2023/07/18 04:33:59;;;;;;;9.27;4.95;;;;;;;24.29;98.05;100824.75;5085244;28;20044;-65
2023/07/18 04:36:25;;;;;;;6.82;5.28;;;;;;;24.39;97.51;100830.34;5083233;28;20024;-66
2023/07/18 04:38:51;;;;;;;5.32;4.72;;;;;;;24.50;96.98;100823.44;5086796;28;20081;-65
2023/07/18 04:41:16;;;;;;;6.53;5.32;;;;;;;24.60;96.98;100828.19;5089672;28;20044;-66
2023/07/18 04:43:42;;;;;;;8.93;4.60;;;;;;;24.66;96.98;100824.63;5085316;28;20024;-66
2023/07/18 04:46:08;;;;;;;5.85;4.38;;;;;;;24.70;96.07;100823.94;5085983;28;20036;-64
2023/07/18 04:48:34;;;;;;;9.95;4.70;;;;;;;24.79;94.00;100822.56;5091096;28;20024;-64
2023/07/18 04:51:01;;;;;;;7.68;4.63;;;;;;;25.10;90.01;100823.31;5088227;28;20027;-64
2023/07/18 04:53:28;;;;;;;6.68;5.13;;;;;;;25.37;88.85;100827.16;5087859;28;20031;-65
2023/07/18 04:55:55;;;;;;;9.02;4.53;;;;;;;25.41;89.16;100833.63;5083506;28;20039;-64
2023/07/18 04:58:22;;;;;;;7.80;4.90;;;;;;;25.42;89.04;100832.59;5088471;28;20080;-65
2023/07/18 05:00:47;;;;;;;8.77;4.78;;;;;;;25.51;89.77;100830.38;5090550;28;20070;-64
2023/07/18 05:03:13;;;;;;;6.53;4.93;;;;;;;25.54;89.84;100829.06;5092227;28;20053;-64
2023/07/18 05:05:38;;;;;;;7.90;4.63;;;;;;;25.58;89.19;100831.03;5075938;28;20054;-65
2023/07/18 05:08:03;;;;;;;11.45;5.18;;;;;;;25.73;88.16;100827.94;5081586;28;20047;-65
2023/07/18 05:10:29;;;;;;;8.43;4.95;;;;;;;25.91;87.25;100825.09;5087703;28;20028;-65
2023/07/18 05:12:56;;;;;;;7.50;4.40;;;;;;;26.04;85.86;100822.13;5084847;28;20089;-65
2023/07/18 05:15:23;;;;;;;10.45;5.18;;;;;;;26.15;85.56;100830.34;5086903;28;20040;-64
2023/07/18 05:17:49;;;;;;;10.32;4.75;;;;;;;26.24;85.99;100834.25;5087439;28;20032;-65
2023/07/18 05:20:15;;;;;;;8.23;4.85;;;;;;;26.23;86.60;100838.78;5090228;28;20051;-65
2023/07/18 05:22:42;;;;;;;11.57;5.07;;;;;;;26.35;86.45;100838.78;5084608;28;20036;-65
2023/07/18 05:25:09;;;;;;;6.97;4.68;;;;;;;26.47;86.47;100836.84;5090302;28;20063;-64
2023/07/18 05:27:35;;;;;;;6.55;4.85;;;;;;;26.51;86.42;100834.50;5086486;28;20089;-65
2023/07/18 05:30:01;;;;;;;14.35;5.03;;;;;;;26.51;85.58;100840.66;5083834;28;20166;-65
2023/07/18 05:32:27;;;;;;;10.85;4.85;;;;;;;26.62;85.43;100839.78;5084142;28;20040;-65
2023/07/18 05:34:53;;;;;;;5.60;4.45;;;;;;;26.62;84.41;100831.75;5082983;28;20495;-65
2023/07/18 05:37:21;;;;;;;7.40;4.20;;;;;;;26.69;83.79;100832.41;5093160;28;20027;-65
2023/07/18 05:39:46;;;;;;;10.23;4.65;;;;;;;26.75;82.54;100827.97;5085320;28;20044;-65
2023/07/18 05:42:12;;;;;;;8.65;4.50;;;;;;;26.83;82.19;100822.22;5083275;28;20031;-65
2023/07/18 05:44:37;;;;;;;6.22;4.47;;;;;;;26.92;81.52;100827.97;5093553;28;20036;-65
2023/07/18 05:47:04;;;;;;;9.18;3.88;;;;;;;27.01;80.00;100822.00;5086651;28;20028;-65
2023/07/18 05:49:29;;;;;;;9.98;4.32;;;;;;;27.12;79.85;100830.16;5076962;28;20039;-65
2023/07/18 05:51:55;;;;;;;8.63;4.20;;;;;;;27.22;79.85;100824.97;5072238;28;20384;-65
2023/07/18 05:54:20;;;;;;;10.73;4.20;;;;;;;27.32;78.20;100833.97;5086519;28;20425;-65
2023/07/18 05:56:46;;;;;;;6.75;3.90;;;;;;;27.47;76.82;100835.22;5089762;28;20550;-65
2023/07/18 05:59:12;;;;;;;5.72;3.60;;;;;;;27.61;77.38;100831.16;5084925;28;20066;-64
2023/07/18 06:01:37;;;;;;;4.30;3.35;;;;;;;27.71;78.02;100833.97;5072917;28;20158;-64
2023/07/18 06:04:03;;;;;;;9.50;4.30;;;;;;;27.79;78.02;100838.88;5087313;28;20028;-64
2023/07/18 06:06:30;;;;;;;7.65;4.22;;;;;;;27.81;77.10;100838.63;5077524;28;20028;-64
2023/07/18 06:08:56;;;;;;;6.00;4.43;;;;;;;27.88;76.88;100842.75;5082221;28;20020;-64
2023/07/18 06:11:24;;;;;;;9.95;4.05;;;;;;;27.92;76.17;100854.53;5086053;28;20384;-64
2023/07/18 06:13:51;;;;;;;6.38;3.35;;;;;;;27.96;76.14;100853.00;5088256;28;20032;-64
2023/07/18 06:16:16;;;;;;;4.85;4.20;;;;;;;28.02;76.00;100849.31;5087743;28;20050;-65
2023/07/18 06:18:42;;;;;;;11.93;4.10;;;;;;;28.12;76.51;100847.81;5080544;28;20580;-64
2023/07/18 06:21:08;;;;;;;7.93;4.03;;;;;;;28.20;76.45;100855.41;5089790;28;20039;-64
2023/07/18 06:23:33;;;;;;;5.38;3.88;;;;;;;28.27;76.38;100856.06;5088743;28;20028;-65
2023/07/18 06:25:59;;;;;;;8.20;3.75;;;;;;;28.38;75.48;100855.88;5079713;28;20044;-64
2023/07/18 06:28:24;;;;;;;5.20;3.60;;;;;;;28.45;74.65;100853.00;5087616;28;20545;-64
2023/07/18 06:30:56;;;;;;;5.65;3.45;;;;;;;28.56;73.34;100862.78;5085910;28;20047;-64
2023/07/18 06:33:23;;;;;;;7.82;3.95;;;;;;;28.55;72.25;100854.97;5093286;28;20077;-65
2023/07/18 06:35:56;;;;;;;6.38;3.92;;;;;;;28.64;71.63;100854.28;5087329;28;20024;-64
2023/07/18 06:38:22;;;;;;;6.30;3.78;;;;;;;28.71;71.41;100854.06;5090999;28;20143;-64
2023/07/18 06:40:49;;;;;;;4.68;3.58;;;;;;;28.77;71.16;100855.72;5085208;28;20053;-64
2023/07/18 06:43:16;;;;;;;5.95;3.90;;;;;;;28.84;71.26;100858.19;5086986;28;20041;-65
2023/07/18 06:45:45;;;;;;;5.15;3.47;;;;;;;28.90;70.49;100859.84;5087646;28;20035;-64
2023/07/18 06:48:11;;;;;;;5.35;3.13;;;;;;;28.96;70.00;100853.47;5085895;28;20032;-64
2023/07/18 06:50:38;;;;;;;6.15;2.65;;;;;;;29.05;68.96;100859.97;5088685;28;20094;-64
2023/07/18 06:53:03;;;;;;;5.43;2.83;;;;;;;29.22;68.21;100859.84;5068667;28;20387;-64
2023/07/18 06:55:29;;;;;;;4.13;3.30;;;;;;;29.10;68.30;100862.69;5087626;28;20023;-64
2023/07/18 06:57:55;;;;;;;7.75;3.03;;;;;;;29.12;65.54;100860.56;5089623;28;20055;-64
2023/07/18 07:00:21;;;;;;;7.07;2.38;;;;;;;29.20;65.15;100861.97;5085050;28;20421;-65
2023/07/18 07:02:46;;;;;;;8.10;3.20;;;;;;;29.23;64.54;100862.25;5085750;28;20024;-65
2023/07/18 07:05:12;;;;;;;4.82;2.58;;;;;;;29.19;64.62;100857.66;5085142;28;20044;-65
2023/07/18 07:07:49;;;;;;;9.40;2.97;;;;;;;29.27;63.57;100862.56;5087026;28;20106;-64
2023/07/18 07:10:15;;;;;;;5.90;2.50;;;;;;;29.35;63.66;100854.81;5084539;28;20056;-65
2023/07/18 07:12:41;;;;;;;3.15;2.60;;;;;;;29.39;62.71;100850.53;5086697;28;20083;-64
2023/07/18 07:15:06;;;;;;;3.83;2.58;;;;;;;29.47;62.77;100854.63;5084727;28;20516;-65
2023/07/18 07:17:32;;;;;;;6.50;2.80;;;;;;;29.52;61.48;100853.88;5088220;28;20134;-64
2023/07/18 07:19:57;;;;;;;5.03;2.53;;;;;;;29.59;62.30;100851.75;5089965;28;20414;-64
2023/07/18 07:22:23;;;;;;;4.82;2.90;;;;;;;29.63;62.26;100859.03;5088447;28;20021;-63
2023/07/18 07:24:48;;;;;;;8.57;2.75;;;;;;;29.86;62.43;100857.75;5081340;28;20468;-63
2023/07/18 07:27:14;;;;;;;4.20;2.80;;;;;;;29.92;62.05;100854.03;5086730;28;20028;-62
2023/07/18 07:29:40;;;;;;;4.18;2.85;;;;;;;29.99;62.58;100848.41;5089553;28;20036;-63
2023/07/18 07:32:06;;;;;;;5.72;2.90;;;;;;;29.97;62.12;100851.38;5091477;28;20579;-62
2023/07/18 07:34:32;;;;;;;6.22;2.53;;;;;;;30.07;62.37;100856.00;5091681;28;20024;-63
2023/07/18 07:36:57;;;;;;;8.00;3.08;;;;;;;30.19;62.23;100856.56;5083992;28;20108;-63
2023/07/18 07:39:23;;;;;;;4.07;2.83;;;;;;;30.28;62.09;100848.78;5088660;28;20074;-63
2023/07/18 07:41:48;;;;;;;8.38;3.75;;;;;;;30.45;62.36;100857.41;5086992;28;20036;-63
2023/07/18 07:44:14;;;;;;;3.40;2.67;;;;;;;30.41;61.56;100860.91;5086379;28;20448;-63
2023/07/18 07:46:39;;;;;;;7.22;2.75;;;;;;;30.50;60.76;100857.41;5088134;28;20071;-63
2023/07/18 07:49:05;;;;;;;4.53;2.47;;;;;;;30.63;60.48;100865.00;5086727;28;20040;-63
2023/07/18 07:51:30;;;;;;;5.43;2.60;;;;;;;30.65;59.72;100868.22;5088508;28;20036;-63
2023/07/18 07:53:58;;;;;;;5.35;2.35;;;;;;;30.73;60.39;100852.59;5087634;28;20051;-62
2023/07/18 07:56:23;;;;;;;4.85;2.80;;;;;;;30.78;59.45;100849.94;5088667;28;20040;-65
2023/07/18 07:58:49;;;;;;;3.63;2.95;;;;;;;30.84;59.39;100865.00;5070495;28;20031;-64
2023/07/18 08:01:14;;;;;;;3.38;2.90;;;;;;;30.85;59.01;100862.03;5089273;28;20373;-64
2023/07/18 08:03:40;;;;;;;7.18;3.22;;;;;;;30.86;58.89;100857.47;5085265;28;20020;-64
2023/07/18 08:06:07;;;;;;;4.43;2.80;;;;;;;31.05;59.41;100855.84;5086209;28;20044;-64
2023/07/18 08:08:32;;;;;;;13.13;2.78;;;;;;;31.23;59.48;100857.97;5082144;28;20471;-63
2023/07/18 08:10:58;;;;;;;3.97;2.92;;;;;;;31.17;58.84;100856.41;5092135;28;20024;-63
2023/07/18 08:13:25;;;;;;;7.25;2.63;;;;;;;31.08;58.50;100849.09;5088286;28;20100;-63
2023/07/18 08:15:51;;;;;;;5.25;3.25;;;;;;;31.28;57.20;100854.47;5087873;28;20020;-63
2023/07/18 08:18:16;;;;;;;5.90;2.65;;;;;;;31.25;56.66;100850.44;5092663;28;20045;-63
2023/07/18 08:20:42;;;;;;;7.32;2.78;;;;;;;31.29;56.15;100848.81;5083969;28;20455;-63
2023/07/18 08:23:08;;;;;;;4.07;2.55;;;;;;;31.27;54.96;100859.03;5083152;28;20024;-63
2023/07/18 08:25:34;;;;;;;3.70;2.70;;;;;;;31.29;55.58;100856.88;5081688;28;20125;-63
2023/07/18 08:28:00;;;;;;;5.82;2.88;;;;;;;31.38;55.40;100854.44;5066811;28;20062;-63
2023/07/18 08:30:26;;;;;;;5.57;3.28;;;;;;;31.43;55.55;100856.31;5086857;28;20517;-63
2023/07/18 08:32:51;;;;;;;5.10;2.33;;;;;;;31.54;55.74;100857.91;5090244;28;20032;-64
2023/07/18 08:35:17;;;;;;;3.10;2.30;;;;;;;31.53;55.12;100851.72;5088164;28;20043;-63
2023/07/18 08:37:42;;;;;;;6.18;3.15;;;;;;;31.51;54.70;100847.69;5062948;28;20044;-63
2023/07/18 08:40:09;;;;;;;7.53;3.00;;;;;;;31.62;54.02;100844.69;5093320;28;20112;-63
2023/07/18 08:42:37;;;;;;;31.27;7.38;;;;;;;31.73;53.80;100837.38;5090473;28;20036;-66
2023/07/18 08:45:03;;;;;;;6.75;2.50;;;;;;;31.78;53.32;100844.63;5088930;28;20032;-66
2023/07/18 08:47:29;;;;;;;4.50;2.92;;;;;;;31.70;52.57;100834.44;5076644;28;20036;-66
2023/07/18 08:49:55;;;;;;;3.05;2.38;;;;;;;31.85;53.13;100837.88;5087840;28;20077;-66
2023/07/18 08:52:20;;;;;;;4.97;2.70;;;;;;;31.95;52.79;100832.44;5082605;28;20036;-66
2023/07/18 08:54:47;;;;;;;4.07;2.38;;;;;;;31.86;53.18;100841.38;5087581;28;20074;-66
2023/07/18 08:57:13;;;;;;;4.50;2.70;;;;;;;31.89;53.55;100844.31;5091204;28;20095;-66
2023/07/18 08:59:39;;;;;;;5.72;2.40;;;;;;;32.15;53.48;100844.16;5090902;28;20052;-66
2023/07/18 09:02:05;;;;;;;3.80;2.63;;;;;;;32.33;52.82;100840.84;5090462;28;20028;-66
2023/07/18 09:04:31;;;;;;;2.60;2.38;;;;;;;32.51;51.69;100848.28;5087455;28;20023;-66
2023/07/18 09:06:59;;;;;;;5.15;2.33;;;;;;;32.42;52.63;100833.78;5097345;28;20423;-67
2023/07/18 09:09:26;;;;;;;5.20;2.58;;;;;;;32.16;51.65;100829.59;5090064;28;20073;-67
2023/07/18 09:11:59;;;;;;;5.88;2.58;;;;;;;32.14;51.91;100819.09;5080987;28;20039;-67
2023/07/18 09:14:30;;;;;;;5.53;3.22;;;;;;;32.52;51.57;100828.31;5100803;28;20060;-67
2023/07/18 09:16:58;;;;;;;3.70;2.45;;;;;;;32.66;50.74;100821.16;5085365;28;20105;-66
2023/07/18 09:19:42;;;;;;;8.63;2.42;;;;;;;32.72;51.19;100818.44;5079183;28;20047;-66
2023/07/18 09:22:09;;;;;;;3.38;2.03;;;;;;;32.86;50.55;100811.31;5079270;28;20481;-67
2023/07/18 09:24:35;;;;;;;5.50;2.85;;;;;;;32.68;50.62;100812.78;5073891;28;20395;-67
2023/07/18 09:27:05;;;;;;;4.22;2.10;;;;;;;32.61;51.08;100813.13;5077408;28;20132;-66
2023/07/18 09:29:31;;;;;;;4.15;2.65;;;;;;;32.64;51.03;100807.16;5080945;28;20119;-66
2023/07/18 09:31:56;;;;;;;3.33;2.67;;;;;;;32.78;50.54;100817.31;5079175;28;20606;-66
2023/07/18 09:34:25;;;;;;;3.78;2.38;;;;;;;33.06;50.14;100813.03;5084721;28;20028;-66
2023/07/18 09:37:03;;;;;;;5.32;2.53;;;;;;;32.99;49.63;100818.75;5080822;28;20024;-66
2023/07/18 09:39:29;;;;;;;3.22;2.38;;;;;;;32.91;50.25;100806.69;5076459;28;20024;-67
2023/07/18 09:41:56;;;;;;;9.15;3.30;;;;;;;33.05;49.75;100808.72;5083886;28;20033;-67
2023/07/18 09:44:23;;;;;;;3.63;2.50;;;;;;;33.15;49.75;100798.59;5083149;28;20598;-67
2023/07/18 09:46:51;;;;;;;4.85;2.67;;;;;;;33.06;50.50;100800.34;5083354;28;20127;-67
2023/07/18 09:49:21;;;;;;;4.13;2.20;;;;;;;33.02;50.35;100790.38;5083114;28;20036;-66
2023/07/18 09:52:09;;;;;;;5.90;2.78;;;;;;;33.05;49.94;100785.22;5081964;28;20035;-67
2023/07/18 09:54:35;;;;;;;6.95;2.92;;;;;;;32.92;50.20;100797.50;5088368;28;20526;-67
2023/07/18 09:57:10;;;;;;;2.67;2.40;;;;;;;32.89;49.77;100797.25;5080828;28;20107;-67
2023/07/18 09:59:37;;;;;;;4.60;2.78;;;;;;;32.98;50.06;100792.84;5078408;28;20024;-67
2023/07/18 10:02:06;;;;;;;4.40;3.13;;;;;;;33.27;50.19;100796.31;5082337;28;20040;-67
2023/07/18 10:04:34;;;;;;;3.42;2.40;;;;;;;33.28;49.63;100789.84;5087021;28;20077;-67
2023/07/18 10:07:02;;;;;;;8.15;2.80;;;;;;;33.29;50.22;100780.66;5089626;28;20537;-67
2023/07/18 10:09:28;;;;;;;4.22;2.65;;;;;;;33.38;49.20;100785.41;5085730;28;20128;-67
2023/07/18 10:12:20;;;;;;;4.38;2.47;;;;;;;33.50;50.15;100780.41;5079001;28;20024;-67
2023/07/18 10:15:04;;;;;;;3.55;2.20;;;;;;;33.39;50.29;100779.72;5076230;28;20048;-67
2023/07/18 10:17:40;;;;;;;3.40;2.40;;;;;;;33.29;50.96;100786.03;5081767;28;20044;-67
2023/07/18 10:20:15;;;;;;;3.80;2.85;;;;;;;33.24;50.59;100777.97;5086657;28;20115;-68
2023/07/18 10:22:54;;;;;;;4.97;2.70;;;;;;;33.31;50.15;100783.06;5079814;28;20036;-65
2023/07/18 10:25:21;;;;;;;4.40;3.17;;;;;;;33.45;50.07;100773.16;5082577;28;20039;-65
2023/07/18 10:27:49;;;;;;;4.82;2.88;;;;;;;33.30;49.92;100776.06;5059815;28;20040;-64
2023/07/18 10:30:20;;;;;;;2.78;2.53;;;;;;;33.32;49.26;100771.16;5082934;28;20020;-64
2023/07/18 10:32:57;;;;;;;6.63;3.22;;;;;;;33.38;48.77;100780.00;5078131;28;20068;-65
2023/07/18 10:35:24;;;;;;;3.97;2.60;;;;;;;33.32;49.77;100767.66;5062529;28;20036;-64
2023/07/18 10:37:53;;;;;;;3.55;2.85;;;;;;;33.39;50.25;100768.13;5072693;28;20126;-65
2023/07/18 10:40:40;;;;;;;5.68;2.55;;;;;;;33.36;49.62;100766.78;5081495;28;20044;-64
2023/07/18 10:43:07;;;;;;;5.38;3.17;;;;;;;33.42;49.75;100762.13;5083383;28;20504;-65
2023/07/18 10:45:42;;;;;;;5.20;2.90;;;;;;;33.47;49.32;100767.47;5075960;28;20060;-64
2023/07/18 10:48:13;;;;;;;2.80;2.60;;;;;;;33.51;49.35;100761.22;5090085;28;20036;-65
2023/07/18 10:50:40;;;;;;;6.13;3.38;;;;;;;33.42;48.98;100762.13;5090074;28;20063;-65
2023/07/18 10:53:10;;;;;;;4.50;3.15;;;;;;;33.44;48.63;100755.34;5086171;28;20028;-64
2023/07/18 10:55:35;;;;;;;10.93;4.00;;;;;;;33.33;48.60;100747.66;5083659;28;20107;-65
2023/07/18 10:58:01;;;;;;;5.03;2.78;;;;;;;33.13;49.42;100751.38;5085130;28;20115;-64
2023/07/18 11:00:26;;;;;;;4.03;2.65;;;;;;;33.33;49.11;100750.38;5086810;28;20036;-64
2023/07/18 11:02:52;;;;;;;5.38;2.60;;;;;;;33.39;48.60;100743.81;5087371;28;20024;-65
2023/07/18 11:05:17;;;;;;;4.22;2.67;;;;;;;33.12;48.18;100744.38;5089750;28;20028;-64
2023/07/18 11:07:48;;;;;;;3.67;2.97;;;;;;;33.03;48.77;100738.81;5082373;28;20032;-64
2023/07/18 11:10:14;;;;;;;4.38;2.83;;;;;;;33.17;49.45;100734.31;5086948;28;20029;-64
2023/07/18 11:12:40;;;;;;;4.50;2.67;;;;;;;33.23;49.75;100741.25;5092415;28;20436;-64
2023/07/18 11:15:07;;;;;;;3.90;3.22;;;;;;;33.27;50.18;100734.22;5088543;28;20090;-65
2023/07/18 11:17:33;;;;;;;4.47;3.35;;;;;;;33.29;50.18;100732.03;5087476;28;20115;-64
2023/07/18 11:19:59;;;;;;;5.50;3.38;;;;;;;33.31;49.58;100723.66;5090555;28;20114;-64
2023/07/18 11:22:25;;;;;;;3.90;2.90;;;;;;;33.20;49.85;100722.94;5081788;28;20047;-64
2023/07/18 11:24:51;;;;;;;5.03;3.45;;;;;;;33.16;49.65;100724.63;5076663;28;20138;-65
2023/07/18 11:27:18;;;;;;;4.88;2.95;;;;;;;33.03;49.00;100719.94;5074001;28;20439;-64
2023/07/18 11:30:09;;;;;;;5.13;3.13;;;;;;;32.78;48.62;100712.91;5084855;28;20130;-65
2023/07/18 11:32:39;;;;;;;4.55;3.25;;;;;;;32.58;50.67;100711.22;5088673;28;20036;-65
2023/07/18 11:35:12;;;;;;;5.80;2.92;;;;;;;32.47;50.76;100712.41;5087061;28;20345;-65
2023/07/18 11:37:43;;;;;;;3.20;2.90;;;;;;;32.35;50.46;100708.47;5083308;28;20117;-65
2023/07/18 11:40:11;;;;;;;7.13;3.58;;;;;;;32.67;51.19;100709.47;5080565;28;20037;-64
2023/07/18 11:42:58;;;;;;;7.13;3.30;;;;;;;32.81;52.42;100703.44;5085035;28;20107;-65
2023/07/18 11:45:28;;;;;;;6.55;3.20;;;;;;;32.93;50.37;100691.16;5084738;28;20338;-65
2023/07/18 11:47:57;;;;;;;6.18;3.13;;;;;;;32.81;49.39;100698.06;5086292;28;20105;-66
2023/07/18 11:50:27;;;;;;;3.30;3.00;;;;;;;32.81;48.80;100681.88;5086068;28;20506;-65
2023/07/18 11:52:53;;;;;;;3.35;3.08;;;;;;;32.81;48.61;100689.94;5089012;28;20020;-65
2023/07/18 11:55:21;;;;;;;6.35;3.15;;;;;;;32.77;48.77;100680.81;5092556;28;20389;-65
2023/07/18 11:57:50;;;;;;;6.68;2.83;;;;;;;32.74;49.35;100679.47;5090095;28;20028;-64
2023/07/18 12:00:16;;;;;;;3.65;3.20;;;;;;;32.77;49.49;100675.44;5067928;28;20032;-65
2023/07/18 12:02:43;;;;;;;4.60;3.22;;;;;;;32.77;48.99;100672.72;5085727;28;20020;-64
2023/07/18 12:05:11;;;;;;;5.05;3.42;;;;;;;32.89;48.49;100673.13;5089601;28;20028;-64
2023/07/18 12:07:37;;;;;;;8.73;3.67;;;;;;;32.98;49.12;100672.22;5084794;28;20136;-64
2023/07/18 12:10:07;;;;;;;4.07;3.72;;;;;;;33.15;49.00;100671.72;5085407;28;20119;-64
2023/07/18 12:12:34;;;;;;;3.78;3.40;;;;;;;33.20;49.01;100670.84;5084809;28;20455;-65
2023/07/18 12:15:01;;;;;;;4.15;3.10;;;;;;;32.92;49.75;100667.16;5082109;28;20032;-65
2023/07/18 12:17:27;;;;;;;3.65;3.05;;;;;;;32.73;49.68;100666.28;5081890;28;20031;-65
2023/07/18 12:19:52;;;;;;;4.57;4.18;;;;;;;32.82;49.76;100665.38;5083368;28;20032;-64
2023/07/18 12:22:19;;;;;;;5.35;3.88;;;;;;;32.89;50.46;100662.34;5084279;28;20559;-65
2023/07/18 12:24:45;;;;;;;8.15;3.60;;;;;;;32.91;50.21;100662.88;5081732;28;20063;-65
2023/07/18 12:27:12;;;;;;;5.30;3.47;;;;;;;33.12;49.31;100661.50;5076890;28;20071;-65
2023/07/18 12:29:38;;;;;;;4.22;3.60;;;;;;;32.91;50.05;100652.06;5066492;28;20039;-64
2023/07/18 12:32:04;;;;;;;6.07;3.95;;;;;;;32.78;52.14;100652.75;5094681;28;20035;-65
2023/07/18 12:34:30;;;;;;;7.85;3.50;;;;;;;32.68;51.57;100650.94;5085877;28;20033;-65
2023/07/18 12:36:55;;;;;;;7.68;3.85;;;;;;;32.49;50.18;100642.81;5088940;28;20040;-64
2023/07/18 12:39:22;;;;;;;4.85;3.45;;;;;;;32.52;49.72;100641.44;5087461;28;20041;-64
2023/07/18 12:41:48;;;;;;;3.50;3.13;;;;;;;32.55;49.83;100640.88;5086807;28;20053;-64
2023/07/18 12:44:18;;;;;;;5.65;3.97;;;;;;;32.55;50.10;100630.88;5085142;28;20063;-64
2023/07/18 12:46:46;;;;;;;5.75;4.18;;;;;;;32.60;50.68;100621.94;5086214;28;20066;-65
2023/07/18 12:49:12;;;;;;;4.75;4.13;;;;;;;32.55;50.97;100614.69;5072417;28;20035;-65
2023/07/18 12:51:37;;;;;;;7.03;4.05;;;;;;;32.40;51.41;100614.84;5091526;28;20055;-64